sensor_id;sensor_type;location;lat;lon;timestamp;P1;durP1;ratioP1;P2;durP2;ratioP2
18789;SDS011;9523;42.650;23.386;2022-12-29T00:01:38;30.97;;;17.87;;
18789;SDS011;9523;42.650;23.386;2022-12-29T00:04:05;33.20;;;18.17;;
18789;SDS011;9523;42.650;23.386;2022-12-29T00:06:32;29.40;;;17.13;;
18789;SDS011;9523;42.650;23.386;2022-12-29T00:09:00;30.93;;;16.37;;
18789;SDS011;9523;42.650;23.386;2022-12-29T00:11:27;28.20;;;16.20;;
18789;SDS011;9523;42.650;23.386;2022-12-29T00:13:54;28.33;;;15.10;;
18789;SDS011;9523;42.650;23.386;2022-12-29T00:16:40;29.30;;;15.70;;
18789;SDS011;9523;42.650;23.386;2022-12-29T00:19:08;29.93;;;15.80;;
18789;SDS011;9523;42.650;23.386;2022-12-29T00:21:56;29.90;;;15.30;;
18789;SDS011;9523;42.650;23.386;2022-12-29T00:24:42;30.77;;;15.50;;
18789;SDS011;9523;42.650;23.386;2022-12-29T00:27:26;30.57;;;16.40;;
18789;SDS011;9523;42.650;23.386;2022-12-29T00:30:12;29.03;;;16.97;;
18789;SDS011;9523;42.650;23.386;2022-12-29T00:32:58;28.07;;;14.93;;
18789;SDS011;9523;42.650;23.386;2022-12-29T00:35:44;25.40;;;15.10;;
18789;SDS011;9523;42.650;23.386;2022-12-29T00:38:14;28.43;;;15.20;;
18789;SDS011;9523;42.650;23.386;2022-12-29T00:40:59;26.57;;;15.07;;
18789;SDS011;9523;42.650;23.386;2022-12-29T00:43:43;26.67;;;15.27;;
18789;SDS011;9523;42.650;23.386;2022-12-29T00:46:28;27.13;;;16.47;;
18789;SDS011;9523;42.650;23.386;2022-12-29T00:48:55;27.50;;;16.43;;
18789;SDS011;9523;42.650;23.386;2022-12-29T00:51:39;31.20;;;17.83;;
18789;SDS011;9523;42.650;23.386;2022-12-29T00:54:06;32.47;;;17.00;;
18789;SDS011;9523;42.650;23.386;2022-12-29T00:56:37;28.53;;;17.50;;
18789;SDS011;9523;42.650;23.386;2022-12-29T00:59:06;30.07;;;18.43;;
18789;SDS011;9523;42.650;23.386;2022-12-29T01:01:34;31.03;;;17.37;;
18789;SDS011;9523;42.650;23.386;2022-12-29T01:04:02;34.77;;;19.00;;
18789;SDS011;9523;42.650;23.386;2022-12-29T01:06:30;33.33;;;17.87;;
18789;SDS011;9523;42.650;23.386;2022-12-29T01:08:57;35.63;;;18.50;;
18789;SDS011;9523;42.650;23.386;2022-12-29T01:11:44;30.93;;;17.93;;
18789;SDS011;9523;42.650;23.386;2022-12-29T01:14:11;35.13;;;18.60;;
18789;SDS011;9523;42.650;23.386;2022-12-29T01:16:39;31.83;;;17.10;;
18789;SDS011;9523;42.650;23.386;2022-12-29T01:19:08;31.60;;;17.63;;
18789;SDS011;9523;42.650;23.386;2022-12-29T01:21:35;29.63;;;17.23;;
18789;SDS011;9523;42.650;23.386;2022-12-29T01:24:02;28.47;;;17.87;;
18789;SDS011;9523;42.650;23.386;2022-12-29T01:26:29;32.07;;;17.70;;
18789;SDS011;9523;42.650;23.386;2022-12-29T01:28:57;32.43;;;17.60;;
18789;SDS011;9523;42.650;23.386;2022-12-29T01:31:24;31.77;;;17.30;;
18789;SDS011;9523;42.650;23.386;2022-12-29T01:33:51;32.70;;;18.13;;
18789;SDS011;9523;42.650;23.386;2022-12-29T01:36:18;31.90;;;18.50;;
18789;SDS011;9523;42.650;23.386;2022-12-29T01:38:46;31.17;;;18.33;;
18789;SDS011;9523;42.650;23.386;2022-12-29T01:41:16;31.93;;;19.07;;
18789;SDS011;9523;42.650;23.386;2022-12-29T01:43:44;36.23;;;18.77;;
18789;SDS011;9523;42.650;23.386;2022-12-29T01:46:15;33.40;;;18.60;;
18789;SDS011;9523;42.650;23.386;2022-12-29T01:48:51;34.80;;;19.73;;
18789;SDS011;9523;42.650;23.386;2022-12-29T01:51:21;34.40;;;19.27;;
18789;SDS011;9523;42.650;23.386;2022-12-29T01:53:49;33.77;;;18.90;;
18789;SDS011;9523;42.650;23.386;2022-12-29T01:56:17;32.27;;;18.27;;
18789;SDS011;9523;42.650;23.386;2022-12-29T01:58:47;30.90;;;19.20;;
18789;SDS011;9523;42.650;23.386;2022-12-29T02:01:18;29.13;;;19.07;;
18789;SDS011;9523;42.650;23.386;2022-12-29T02:03:47;32.97;;;18.73;;
18789;SDS011;9523;42.650;23.386;2022-12-29T02:06:16;28.93;;;17.43;;
18789;SDS011;9523;42.650;23.386;2022-12-29T02:08:47;29.90;;;18.00;;
18789;SDS011;9523;42.650;23.386;2022-12-29T02:11:16;30.17;;;18.73;;
18789;SDS011;9523;42.650;23.386;2022-12-29T02:13:44;30.43;;;17.60;;
18789;SDS011;9523;42.650;23.386;2022-12-29T02:16:14;35.63;;;19.63;;
18789;SDS011;9523;42.650;23.386;2022-12-29T02:18:56;31.37;;;19.60;;
18789;SDS011;9523;42.650;23.386;2022-12-29T02:21:48;33.57;;;19.73;;
18789;SDS011;9523;42.650;23.386;2022-12-29T02:27:43;39.17;;;19.80;;
18789;SDS011;9523;42.650;23.386;2022-12-29T02:30:29;34.93;;;19.40;;
18789;SDS011;9523;42.650;23.386;2022-12-29T02:33:11;31.00;;;19.13;;
18789;SDS011;9523;42.650;23.386;2022-12-29T02:35:49;32.33;;;19.20;;
18789;SDS011;9523;42.650;23.386;2022-12-29T02:38:20;35.87;;;18.47;;
18789;SDS011;9523;42.650;23.386;2022-12-29T02:40:58;35.40;;;19.00;;
18789;SDS011;9523;42.650;23.386;2022-12-29T02:43:33;31.03;;;18.07;;
18789;SDS011;9523;42.650;23.386;2022-12-29T02:46:07;36.30;;;18.67;;
18789;SDS011;9523;42.650;23.386;2022-12-29T02:48:45;34.17;;;18.83;;
18789;SDS011;9523;42.650;23.386;2022-12-29T02:51:18;34.33;;;19.07;;
18789;SDS011;9523;42.650;23.386;2022-12-29T02:53:50;30.53;;;18.40;;
18789;SDS011;9523;42.650;23.386;2022-12-29T02:56:36;36.57;;;19.87;;
18789;SDS011;9523;42.650;23.386;2022-12-29T02:59:03;32.57;;;19.27;;
18789;SDS011;9523;42.650;23.386;2022-12-29T03:01:36;37.93;;;21.40;;
18789;SDS011;9523;42.650;23.386;2022-12-29T03:04:35;38.17;;;21.23;;
18789;SDS011;9523;42.650;23.386;2022-12-29T03:07:09;36.27;;;21.07;;
18789;SDS011;9523;42.650;23.386;2022-12-29T03:09:55;34.57;;;21.70;;
18789;SDS011;9523;42.650;23.386;2022-12-29T03:12:29;40.17;;;21.20;;
18789;SDS011;9523;42.650;23.386;2022-12-29T03:15:16;32.57;;;19.90;;
18789;SDS011;9523;42.650;23.386;2022-12-29T03:18:09;36.17;;;20.63;;
18789;SDS011;9523;42.650;23.386;2022-12-29T03:20:41;30.40;;;17.40;;
18789;SDS011;9523;42.650;23.386;2022-12-29T03:23:15;31.53;;;16.60;;
18789;SDS011;9523;42.650;23.386;2022-12-29T03:25:43;29.30;;;15.97;;
18789;SDS011;9523;42.650;23.386;2022-12-29T03:28:14;28.93;;;15.30;;
18789;SDS011;9523;42.650;23.386;2022-12-29T03:30:44;28.77;;;15.37;;
18789;SDS011;9523;42.650;23.386;2022-12-29T03:33:14;29.53;;;15.40;;
18789;SDS011;9523;42.650;23.386;2022-12-29T03:35:44;24.17;;;14.07;;
18789;SDS011;9523;42.650;23.386;2022-12-29T03:38:15;27.87;;;15.53;;
18789;SDS011;9523;42.650;23.386;2022-12-29T03:40:47;28.47;;;15.47;;
18789;SDS011;9523;42.650;23.386;2022-12-29T03:43:16;24.87;;;14.37;;
18789;SDS011;9523;42.650;23.386;2022-12-29T03:45:44;28.47;;;13.43;;
18789;SDS011;9523;42.650;23.386;2022-12-29T03:48:13;26.23;;;15.27;;
18789;SDS011;9523;42.650;23.386;2022-12-29T03:50:40;24.33;;;14.10;;
18789;SDS011;9523;42.650;23.386;2022-12-29T03:53:07;29.47;;;15.80;;
18789;SDS011;9523;42.650;23.386;2022-12-29T03:55:34;30.67;;;16.57;;
18789;SDS011;9523;42.650;23.386;2022-12-29T03:58:01;31.23;;;16.87;;
18789;SDS011;9523;42.650;23.386;2022-12-29T04:00:28;32.00;;;17.07;;
18789;SDS011;9523;42.650;23.386;2022-12-29T04:02:55;32.60;;;16.37;;
18789;SDS011;9523;42.650;23.386;2022-12-29T04:05:23;31.47;;;17.77;;
18789;SDS011;9523;42.650;23.386;2022-12-29T04:07:50;36.80;;;19.03;;
18789;SDS011;9523;42.650;23.386;2022-12-29T04:10:16;35.30;;;18.77;;
18789;SDS011;9523;42.650;23.386;2022-12-29T04:12:43;33.67;;;19.17;;
18789;SDS011;9523;42.650;23.386;2022-12-29T04:15:11;33.97;;;18.90;;
18789;SDS011;9523;42.650;23.386;2022-12-29T04:17:38;36.73;;;18.93;;
18789;SDS011;9523;42.650;23.386;2022-12-29T04:20:06;37.73;;;19.53;;
18789;SDS011;9523;42.650;23.386;2022-12-29T04:22:58;32.80;;;18.93;;
18789;SDS011;9523;42.650;23.386;2022-12-29T04:25:25;33.67;;;18.47;;
18789;SDS011;9523;42.650;23.386;2022-12-29T04:27:53;35.33;;;20.67;;
18789;SDS011;9523;42.650;23.386;2022-12-29T04:30:19;40.13;;;19.90;;
18789;SDS011;9523;42.650;23.386;2022-12-29T04:32:46;39.17;;;19.50;;
18789;SDS011;9523;42.650;23.386;2022-12-29T04:35:13;37.93;;;20.43;;
18789;SDS011;9523;42.650;23.386;2022-12-29T04:37:40;40.37;;;19.70;;
18789;SDS011;9523;42.650;23.386;2022-12-29T04:40:09;35.70;;;19.50;;
18789;SDS011;9523;42.650;23.386;2022-12-29T04:42:37;38.37;;;20.27;;
18789;SDS011;9523;42.650;23.386;2022-12-29T04:45:04;35.10;;;19.40;;
18789;SDS011;9523;42.650;23.386;2022-12-29T04:47:34;35.57;;;18.30;;
18789;SDS011;9523;42.650;23.386;2022-12-29T04:50:01;37.50;;;19.80;;
18789;SDS011;9523;42.650;23.386;2022-12-29T04:52:28;34.57;;;18.77;;
18789;SDS011;9523;42.650;23.386;2022-12-29T04:54:56;34.37;;;18.53;;
18789;SDS011;9523;42.650;23.386;2022-12-29T04:57:24;33.80;;;17.60;;
18789;SDS011;9523;42.650;23.386;2022-12-29T04:59:51;34.43;;;18.30;;
18789;SDS011;9523;42.650;23.386;2022-12-29T05:02:18;39.57;;;20.00;;
18789;SDS011;9523;42.650;23.386;2022-12-29T05:04:44;36.97;;;19.60;;
18789;SDS011;9523;42.650;23.386;2022-12-29T05:07:12;34.17;;;18.70;;
18789;SDS011;9523;42.650;23.386;2022-12-29T05:09:39;31.63;;;18.07;;
18789;SDS011;9523;42.650;23.386;2022-12-29T05:12:06;34.43;;;17.67;;
18789;SDS011;9523;42.650;23.386;2022-12-29T05:14:34;33.03;;;17.30;;
18789;SDS011;9523;42.650;23.386;2022-12-29T05:17:01;28.53;;;18.17;;
18789;SDS011;9523;42.650;23.386;2022-12-29T05:19:28;34.00;;;19.07;;
18789;SDS011;9523;42.650;23.386;2022-12-29T05:21:55;35.87;;;19.53;;
18789;SDS011;9523;42.650;23.386;2022-12-29T05:24:22;28.80;;;16.13;;
18789;SDS011;9523;42.650;23.386;2022-12-29T05:26:52;28.90;;;16.40;;
18789;SDS011;9523;42.650;23.386;2022-12-29T05:29:19;29.87;;;16.53;;
18789;SDS011;9523;42.650;23.386;2022-12-29T05:31:47;27.73;;;16.93;;
18789;SDS011;9523;42.650;23.386;2022-12-29T05:34:14;30.77;;;16.20;;
18789;SDS011;9523;42.650;23.386;2022-12-29T05:36:41;28.13;;;15.63;;
18789;SDS011;9523;42.650;23.386;2022-12-29T05:39:07;26.47;;;16.10;;
18789;SDS011;9523;42.650;23.386;2022-12-29T05:41:35;28.87;;;16.07;;
18789;SDS011;9523;42.650;23.386;2022-12-29T05:44:02;35.60;;;18.03;;
18789;SDS011;9523;42.650;23.386;2022-12-29T05:46:29;33.60;;;16.53;;
18789;SDS011;9523;42.650;23.386;2022-12-29T05:48:58;29.33;;;16.63;;
18789;SDS011;9523;42.650;23.386;2022-12-29T05:51:25;31.57;;;16.40;;
18789;SDS011;9523;42.650;23.386;2022-12-29T05:53:52;30.70;;;17.13;;
18789;SDS011;9523;42.650;23.386;2022-12-29T05:56:18;30.03;;;17.17;;
18789;SDS011;9523;42.650;23.386;2022-12-29T05:58:45;27.10;;;15.83;;
18789;SDS011;9523;42.650;23.386;2022-12-29T06:01:16;34.30;;;17.70;;
18789;SDS011;9523;42.650;23.386;2022-12-29T06:03:43;33.37;;;18.23;;
18789;SDS011;9523;42.650;23.386;2022-12-29T06:06:11;33.47;;;18.53;;
18789;SDS011;9523;42.650;23.386;2022-12-29T06:08:38;44.13;;;20.93;;
18789;SDS011;9523;42.650;23.386;2022-12-29T06:11:04;34.13;;;18.90;;
18789;SDS011;9523;42.650;23.386;2022-12-29T06:13:31;34.03;;;20.27;;
18789;SDS011;9523;42.650;23.386;2022-12-29T06:15:58;37.50;;;19.80;;
18789;SDS011;9523;42.650;23.386;2022-12-29T06:18:25;33.63;;;19.60;;
18789;SDS011;9523;42.650;23.386;2022-12-29T06:20:52;39.87;;;21.87;;
18789;SDS011;9523;42.650;23.386;2022-12-29T06:23:20;43.63;;;22.10;;
18789;SDS011;9523;42.650;23.386;2022-12-29T06:25:47;38.43;;;22.40;;
18789;SDS011;9523;42.650;23.386;2022-12-29T06:28:14;39.10;;;21.83;;
18789;SDS011;9523;42.650;23.386;2022-12-29T06:30:42;37.60;;;22.33;;
18789;SDS011;9523;42.650;23.386;2022-12-29T06:33:09;41.87;;;22.70;;
18789;SDS011;9523;42.650;23.386;2022-12-29T06:35:36;38.60;;;22.73;;
18789;SDS011;9523;42.650;23.386;2022-12-29T06:38:03;37.93;;;22.20;;
18789;SDS011;9523;42.650;23.386;2022-12-29T06:40:32;39.53;;;23.67;;
18789;SDS011;9523;42.650;23.386;2022-12-29T06:42:59;42.10;;;23.47;;
18789;SDS011;9523;42.650;23.386;2022-12-29T06:45:26;44.47;;;23.97;;
18789;SDS011;9523;42.650;23.386;2022-12-29T06:47:53;117.17;;;54.03;;
18789;SDS011;9523;42.650;23.386;2022-12-29T06:50:20;82.97;;;43.30;;
18789;SDS011;9523;42.650;23.386;2022-12-29T06:52:47;49.07;;;25.90;;
18789;SDS011;9523;42.650;23.386;2022-12-29T06:55:14;44.40;;;24.43;;
18789;SDS011;9523;42.650;23.386;2022-12-29T06:57:42;39.50;;;23.00;;
18789;SDS011;9523;42.650;23.386;2022-12-29T07:00:09;45.07;;;25.57;;
18789;SDS011;9523;42.650;23.386;2022-12-29T07:02:37;43.47;;;25.17;;
18789;SDS011;9523;42.650;23.386;2022-12-29T07:05:06;40.70;;;24.60;;
18789;SDS011;9523;42.650;23.386;2022-12-29T07:07:36;35.63;;;21.63;;
18789;SDS011;9523;42.650;23.386;2022-12-29T07:10:03;35.00;;;19.77;;
18789;SDS011;9523;42.650;23.386;2022-12-29T07:12:31;38.57;;;18.20;;
18789;SDS011;9523;42.650;23.386;2022-12-29T07:14:59;27.97;;;17.03;;
18789;SDS011;9523;42.650;23.386;2022-12-29T07:17:26;32.33;;;17.80;;
18789;SDS011;9523;42.650;23.386;2022-12-29T07:19:53;29.53;;;17.60;;
18789;SDS011;9523;42.650;23.386;2022-12-29T07:22:19;28.93;;;17.00;;
18789;SDS011;9523;42.650;23.386;2022-12-29T07:24:46;33.80;;;18.93;;
18789;SDS011;9523;42.650;23.386;2022-12-29T07:27:13;30.50;;;18.73;;
18789;SDS011;9523;42.650;23.386;2022-12-29T07:29:40;35.30;;;18.67;;
18789;SDS011;9523;42.650;23.386;2022-12-29T07:32:08;36.97;;;19.00;;
18789;SDS011;9523;42.650;23.386;2022-12-29T07:34:35;36.57;;;20.17;;
18789;SDS011;9523;42.650;23.386;2022-12-29T07:37:02;35.67;;;21.17;;
18789;SDS011;9523;42.650;23.386;2022-12-29T07:39:31;36.33;;;21.80;;
18789;SDS011;9523;42.650;23.386;2022-12-29T07:41:59;34.63;;;20.93;;
18789;SDS011;9523;42.650;23.386;2022-12-29T07:44:25;39.37;;;22.10;;
18789;SDS011;9523;42.650;23.386;2022-12-29T07:46:52;37.47;;;24.53;;
18789;SDS011;9523;42.650;23.386;2022-12-29T07:49:20;40.27;;;22.73;;
18789;SDS011;9523;42.650;23.386;2022-12-29T07:51:47;34.73;;;20.47;;
18789;SDS011;9523;42.650;23.386;2022-12-29T07:54:14;34.87;;;19.07;;
18789;SDS011;9523;42.650;23.386;2022-12-29T07:56:43;34.50;;;19.60;;
18789;SDS011;9523;42.650;23.386;2022-12-29T07:59:10;34.87;;;20.90;;
18789;SDS011;9523;42.650;23.386;2022-12-29T08:01:37;34.77;;;20.00;;
18789;SDS011;9523;42.650;23.386;2022-12-29T08:04:05;34.83;;;20.23;;
18789;SDS011;9523;42.650;23.386;2022-12-29T08:06:33;36.10;;;20.27;;
18789;SDS011;9523;42.650;23.386;2022-12-29T08:09:00;32.47;;;19.20;;
18789;SDS011;9523;42.650;23.386;2022-12-29T08:11:27;36.50;;;18.63;;
18789;SDS011;9523;42.650;23.386;2022-12-29T08:13:57;32.47;;;18.30;;
18789;SDS011;9523;42.650;23.386;2022-12-29T08:16:24;31.13;;;17.83;;
18789;SDS011;9523;42.650;23.386;2022-12-29T08:18:51;33.37;;;19.37;;
18789;SDS011;9523;42.650;23.386;2022-12-29T08:21:17;30.87;;;18.33;;
18789;SDS011;9523;42.650;23.386;2022-12-29T08:23:46;33.63;;;18.03;;
18789;SDS011;9523;42.650;23.386;2022-12-29T08:26:13;32.77;;;18.03;;
18789;SDS011;9523;42.650;23.386;2022-12-29T08:28:40;34.07;;;19.47;;
18789;SDS011;9523;42.650;23.386;2022-12-29T08:31:07;36.07;;;20.10;;
18789;SDS011;9523;42.650;23.386;2022-12-29T08:33:34;32.00;;;18.70;;
18789;SDS011;9523;42.650;23.386;2022-12-29T08:36:01;36.37;;;18.80;;
18789;SDS011;9523;42.650;23.386;2022-12-29T08:38:29;32.50;;;18.73;;
18789;SDS011;9523;42.650;23.386;2022-12-29T08:40:57;31.20;;;18.80;;
18789;SDS011;9523;42.650;23.386;2022-12-29T08:43:26;30.77;;;17.93;;
18789;SDS011;9523;42.650;23.386;2022-12-29T08:45:53;36.00;;;19.70;;
18789;SDS011;9523;42.650;23.386;2022-12-29T08:48:21;34.50;;;20.70;;
18789;SDS011;9523;42.650;23.386;2022-12-29T08:50:51;32.70;;;19.37;;
18789;SDS011;9523;42.650;23.386;2022-12-29T08:53:18;36.07;;;21.73;;
18789;SDS011;9523;42.650;23.386;2022-12-29T08:55:45;36.67;;;21.67;;
18789;SDS011;9523;42.650;23.386;2022-12-29T08:58:13;35.90;;;19.80;;
18789;SDS011;9523;42.650;23.386;2022-12-29T09:00:41;34.93;;;21.03;;
18789;SDS011;9523;42.650;23.386;2022-12-29T09:03:08;36.20;;;22.13;;
18789;SDS011;9523;42.650;23.386;2022-12-29T09:05:35;32.87;;;21.23;;
18789;SDS011;9523;42.650;23.386;2022-12-29T09:08:02;35.87;;;21.43;;
18789;SDS011;9523;42.650;23.386;2022-12-29T09:10:30;38.63;;;22.03;;
18789;SDS011;9523;42.650;23.386;2022-12-29T09:12:57;36.07;;;22.23;;
18789;SDS011;9523;42.650;23.386;2022-12-29T09:15:26;36.23;;;23.83;;
18789;SDS011;9523;42.650;23.386;2022-12-29T09:17:52;38.13;;;24.27;;
18789;SDS011;9523;42.650;23.386;2022-12-29T09:20:20;45.83;;;26.20;;
18789;SDS011;9523;42.650;23.386;2022-12-29T09:22:47;42.27;;;25.57;;
18789;SDS011;9523;42.650;23.386;2022-12-29T09:25:18;43.03;;;25.07;;
18789;SDS011;9523;42.650;23.386;2022-12-29T09:27:47;41.80;;;25.73;;
18789;SDS011;9523;42.650;23.386;2022-12-29T09:30:14;41.77;;;25.47;;
18789;SDS011;9523;42.650;23.386;2022-12-29T09:32:43;41.77;;;24.70;;
18789;SDS011;9523;42.650;23.386;2022-12-29T09:35:09;36.77;;;23.97;;
18789;SDS011;9523;42.650;23.386;2022-12-29T09:37:36;41.17;;;22.93;;
18789;SDS011;9523;42.650;23.386;2022-12-29T09:40:04;37.80;;;22.77;;
18789;SDS011;9523;42.650;23.386;2022-12-29T09:42:34;40.60;;;21.47;;
18789;SDS011;9523;42.650;23.386;2022-12-29T09:45:08;34.17;;;21.30;;
18789;SDS011;9523;42.650;23.386;2022-12-29T09:47:40;28.97;;;19.53;;
18789;SDS011;9523;42.650;23.386;2022-12-29T09:50:12;33.23;;;19.93;;
18789;SDS011;9523;42.650;23.386;2022-12-29T09:52:47;33.53;;;19.80;;
18789;SDS011;9523;42.650;23.386;2022-12-29T09:55:19;30.23;;;19.33;;
18789;SDS011;9523;42.650;23.386;2022-12-29T09:57:52;31.73;;;19.83;;
18789;SDS011;9523;42.650;23.386;2022-12-29T10:00:23;28.53;;;17.97;;
18789;SDS011;9523;42.650;23.386;2022-12-29T10:03:02;29.53;;;18.93;;
18789;SDS011;9523;42.650;23.386;2022-12-29T10:05:38;30.50;;;18.30;;
18789;SDS011;9523;42.650;23.386;2022-12-29T10:08:16;31.73;;;19.40;;
18789;SDS011;9523;42.650;23.386;2022-12-29T10:10:56;30.10;;;19.20;;
18789;SDS011;9523;42.650;23.386;2022-12-29T10:13:30;31.07;;;19.30;;
18789;SDS011;9523;42.650;23.386;2022-12-29T10:16:07;30.17;;;20.07;;
18789;SDS011;9523;42.650;23.386;2022-12-29T10:19:00;32.80;;;19.77;;
18789;SDS011;9523;42.650;23.386;2022-12-29T10:21:44;32.37;;;20.00;;
18789;SDS011;9523;42.650;23.386;2022-12-29T10:24:22;32.83;;;20.80;;
18789;SDS011;9523;42.650;23.386;2022-12-29T10:26:53;30.13;;;20.73;;
18789;SDS011;9523;42.650;23.386;2022-12-29T10:29:25;32.97;;;20.63;;
18789;SDS011;9523;42.650;23.386;2022-12-29T10:31:59;27.73;;;20.13;;
18789;SDS011;9523;42.650;23.386;2022-12-29T10:34:30;32.47;;;20.73;;
18789;SDS011;9523;42.650;23.386;2022-12-29T10:37:02;27.00;;;18.63;;
18789;SDS011;9523;42.650;23.386;2022-12-29T10:39:37;30.23;;;19.67;;
18789;SDS011;9523;42.650;23.386;2022-12-29T10:42:11;27.60;;;20.13;;
18789;SDS011;9523;42.650;23.386;2022-12-29T10:44:43;31.87;;;19.90;;
18789;SDS011;9523;42.650;23.386;2022-12-29T10:47:12;27.43;;;19.83;;
18789;SDS011;9523;42.650;23.386;2022-12-29T10:49:45;29.13;;;19.40;;
18789;SDS011;9523;42.650;23.386;2022-12-29T10:52:14;30.17;;;19.37;;
18789;SDS011;9523;42.650;23.386;2022-12-29T10:54:45;28.53;;;19.50;;
18789;SDS011;9523;42.650;23.386;2022-12-29T10:57:17;33.30;;;19.37;;
18789;SDS011;9523;42.650;23.386;2022-12-29T10:59:50;31.53;;;21.87;;
18789;SDS011;9523;42.650;23.386;2022-12-29T11:02:24;29.13;;;18.83;;
18789;SDS011;9523;42.650;23.386;2022-12-29T11:05:06;27.97;;;20.13;;
18789;SDS011;9523;42.650;23.386;2022-12-29T11:07:39;29.50;;;20.73;;
18789;SDS011;9523;42.650;23.386;2022-12-29T11:10:17;40.93;;;26.50;;
18789;SDS011;9523;42.650;23.386;2022-12-29T11:12:57;28.03;;;21.03;;
18789;SDS011;9523;42.650;23.386;2022-12-29T11:15:25;30.93;;;20.33;;
18789;SDS011;9523;42.650;23.386;2022-12-29T11:17:52;29.27;;;20.50;;
18789;SDS011;9523;42.650;23.386;2022-12-29T11:20:30;32.63;;;20.70;;
18789;SDS011;9523;42.650;23.386;2022-12-29T11:23:00;31.50;;;20.50;;
18789;SDS011;9523;42.650;23.386;2022-12-29T11:25:27;31.07;;;21.87;;
18789;SDS011;9523;42.650;23.386;2022-12-29T11:27:55;34.80;;;20.90;;
18789;SDS011;9523;42.650;23.386;2022-12-29T11:30:24;29.70;;;21.53;;
18789;SDS011;9523;42.650;23.386;2022-12-29T11:32:53;33.27;;;21.23;;
18789;SDS011;9523;42.650;23.386;2022-12-29T11:35:32;33.13;;;21.37;;
18789;SDS011;9523;42.650;23.386;2022-12-29T11:38:01;31.10;;;21.57;;
18789;SDS011;9523;42.650;23.386;2022-12-29T11:40:30;31.83;;;20.90;;
18789;SDS011;9523;42.650;23.386;2022-12-29T11:43:04;29.37;;;21.07;;
18789;SDS011;9523;42.650;23.386;2022-12-29T11:45:33;30.37;;;20.43;;
18789;SDS011;9523;42.650;23.386;2022-12-29T11:48:06;30.50;;;21.83;;
18789;SDS011;9523;42.650;23.386;2022-12-29T11:50:37;34.70;;;22.13;;
18789;SDS011;9523;42.650;23.386;2022-12-29T11:53:07;34.10;;;22.57;;
18789;SDS011;9523;42.650;23.386;2022-12-29T11:55:49;34.03;;;21.73;;
18789;SDS011;9523;42.650;23.386;2022-12-29T11:58:18;33.47;;;21.93;;
18789;SDS011;9523;42.650;23.386;2022-12-29T12:00:45;29.63;;;21.20;;
18789;SDS011;9523;42.650;23.386;2022-12-29T12:03:16;32.30;;;20.80;;
18789;SDS011;9523;42.650;23.386;2022-12-29T12:05:47;34.03;;;21.83;;
18789;SDS011;9523;42.650;23.386;2022-12-29T12:08:20;36.77;;;22.57;;
18789;SDS011;9523;42.650;23.386;2022-12-29T12:10:58;37.50;;;24.15;;
18789;SDS011;9523;42.650;23.386;2022-12-29T12:13:31;33.08;;;22.10;;
18789;SDS011;9523;42.650;23.386;2022-12-29T12:16:04;33.60;;;21.87;;
18789;SDS011;9523;42.650;23.386;2022-12-29T12:18:38;31.13;;;20.87;;
18789;SDS011;9523;42.650;23.386;2022-12-29T12:21:12;32.63;;;20.63;;
18789;SDS011;9523;42.650;23.386;2022-12-29T12:23:56;32.27;;;22.03;;
18789;SDS011;9523;42.650;23.386;2022-12-29T12:26:34;33.83;;;20.90;;
18789;SDS011;9523;42.650;23.386;2022-12-29T12:29:08;34.50;;;21.13;;
18789;SDS011;9523;42.650;23.386;2022-12-29T12:31:41;32.63;;;21.60;;
18789;SDS011;9523;42.650;23.386;2022-12-29T12:34:13;35.13;;;21.10;;
18789;SDS011;9523;42.650;23.386;2022-12-29T12:36:50;28.27;;;20.67;;
18789;SDS011;9523;42.650;23.386;2022-12-29T12:39:29;30.63;;;21.67;;
18789;SDS011;9523;42.650;23.386;2022-12-29T12:42:06;33.43;;;19.93;;
18789;SDS011;9523;42.650;23.386;2022-12-29T12:44:50;32.60;;;21.23;;
18789;SDS011;9523;42.650;23.386;2022-12-29T12:47:32;31.10;;;21.57;;
18789;SDS011;9523;42.650;23.386;2022-12-29T12:50:18;28.83;;;20.63;;
18789;SDS011;9523;42.650;23.386;2022-12-29T12:53:03;35.10;;;21.03;;
18789;SDS011;9523;42.650;23.386;2022-12-29T12:55:47;31.80;;;20.90;;
18789;SDS011;9523;42.650;23.386;2022-12-29T12:58:25;38.00;;;19.83;;
18789;SDS011;9523;42.650;23.386;2022-12-29T13:01:03;27.53;;;20.33;;
18789;SDS011;9523;42.650;23.386;2022-12-29T13:03:47;33.10;;;20.63;;
18789;SDS011;9523;42.650;23.386;2022-12-29T13:06:32;33.93;;;21.03;;
18789;SDS011;9523;42.650;23.386;2022-12-29T13:09:20;32.47;;;20.57;;
18789;SDS011;9523;42.650;23.386;2022-12-29T13:12:01;29.13;;;19.83;;
18789;SDS011;9523;42.650;23.386;2022-12-29T13:14:40;30.20;;;19.57;;
18789;SDS011;9523;42.650;23.386;2022-12-29T13:17:13;31.30;;;20.60;;
18789;SDS011;9523;42.650;23.386;2022-12-29T13:19:47;28.03;;;19.47;;
18789;SDS011;9523;42.650;23.386;2022-12-29T13:22:21;37.23;;;21.73;;
18789;SDS011;9523;42.650;23.386;2022-12-29T13:25:01;32.53;;;20.03;;
18789;SDS011;9523;42.650;23.386;2022-12-29T13:27:44;29.13;;;19.87;;
18789;SDS011;9523;42.650;23.386;2022-12-29T13:30:21;35.03;;;19.70;;
18789;SDS011;9523;42.650;23.386;2022-12-29T13:32:55;30.37;;;19.57;;
18789;SDS011;9523;42.650;23.386;2022-12-29T13:35:43;30.00;;;20.03;;
18789;SDS011;9523;42.650;23.386;2022-12-29T13:38:22;36.40;;;21.50;;
18789;SDS011;9523;42.650;23.386;2022-12-29T13:40:55;36.10;;;21.33;;
18789;SDS011;9523;42.650;23.386;2022-12-29T13:43:27;32.50;;;21.23;;
18789;SDS011;9523;42.650;23.386;2022-12-29T13:46:01;34.57;;;21.77;;
18789;SDS011;9523;42.650;23.386;2022-12-29T13:48:37;31.67;;;20.93;;
18789;SDS011;9523;42.650;23.386;2022-12-29T13:51:10;36.57;;;22.17;;
18789;SDS011;9523;42.650;23.386;2022-12-29T13:53:41;36.60;;;22.53;;
18789;SDS011;9523;42.650;23.386;2022-12-29T13:56:22;32.70;;;22.17;;
18789;SDS011;9523;42.650;23.386;2022-12-29T13:58:57;34.37;;;22.23;;
18789;SDS011;9523;42.650;23.386;2022-12-29T14:01:32;33.03;;;21.73;;
18789;SDS011;9523;42.650;23.386;2022-12-29T14:04:02;35.03;;;22.00;;
18789;SDS011;9523;42.650;23.386;2022-12-29T14:06:35;36.67;;;23.03;;
18789;SDS011;9523;42.650;23.386;2022-12-29T14:09:06;39.17;;;23.30;;
18789;SDS011;9523;42.650;23.386;2022-12-29T14:11:55;41.13;;;22.97;;
18789;SDS011;9523;42.650;23.386;2022-12-29T14:14:22;33.33;;;22.70;;
18789;SDS011;9523;42.650;23.386;2022-12-29T14:16:51;38.40;;;22.53;;
18789;SDS011;9523;42.650;23.386;2022-12-29T14:19:19;38.57;;;23.27;;
18789;SDS011;9523;42.650;23.386;2022-12-29T14:21:50;45.33;;;23.83;;
18789;SDS011;9523;42.650;23.386;2022-12-29T14:33:16;36.70;;;22.17;;
18789;SDS011;9523;42.650;23.386;2022-12-29T14:35:44;42.63;;;22.73;;
18789;SDS011;9523;42.650;23.386;2022-12-29T14:38:24;42.17;;;23.80;;
18789;SDS011;9523;42.650;23.386;2022-12-29T14:41:15;39.40;;;23.17;;
18789;SDS011;9523;42.650;23.386;2022-12-29T14:43:51;38.20;;;23.23;;
18789;SDS011;9523;42.650;23.386;2022-12-29T14:46:22;37.53;;;22.20;;
18789;SDS011;9523;42.650;23.386;2022-12-29T14:48:52;40.67;;;23.43;;
18789;SDS011;9523;42.650;23.386;2022-12-29T14:51:28;37.73;;;23.03;;
18789;SDS011;9523;42.650;23.386;2022-12-29T14:54:00;52.13;;;30.37;;
18789;SDS011;9523;42.650;23.386;2022-12-29T14:56:50;52.80;;;28.87;;
18789;SDS011;9523;42.650;23.386;2022-12-29T14:59:17;45.03;;;24.10;;